createdAt,value
2018-01-02T00:02:35.012Z,4.99
2018-01-02T00:17:35.061Z,5.03
2018-01-02T01:02:34.297Z,4.72
2018-01-02T01:17:36.285Z,4.77
2018-01-02T01:32:35.186Z,4.66
2018-01-02T01:47:34.585Z,4.47
2018-01-02T02:02:34.465Z,4.43
2018-01-02T02:17:34.443Z,4.38
2018-01-02T02:32:34.344Z,4.29
2018-01-02T02:47:34.755Z,4.29
2018-01-02T03:02:34.687Z,4.29
2018-01-02T03:17:34.640Z,4.25
2018-01-02T03:32:34.602Z,4.15
2018-01-02T03:47:35.603Z,4.14
2018-01-02T04:02:36.918Z,4.25
2018-01-02T04:17:34.932Z,4.39
2018-01-02T04:32:34.802Z,4.50
2018-01-02T04:47:36.285Z,4.49
2018-01-02T05:02:34.148Z,4.54
2018-01-02T05:17:35.174Z,4.83
2018-01-02T05:32:35.119Z,5.04
2018-01-02T05:47:35.442Z,4.53
2018-01-02T06:02:34.380Z,5.87
2018-01-02T06:17:33.678Z,4.41
2018-01-02T06:32:34.322Z,4.87
2018-01-02T06:47:34.187Z,4.68
2018-01-02T07:02:34.621Z,4.80
2018-01-02T07:17:34.546Z,5.02
2018-01-02T08:02:34.326Z,5.56
2018-01-02T08:17:34.784Z,5.04
2018-01-02T08:32:34.731Z,5.25
2018-01-02T08:47:34.189Z,5.47
2018-01-02T09:17:35.058Z,6.69
2018-01-02T09:47:35.830Z,8.80
2018-01-02T10:02:33.359Z,10.46
2018-01-02T10:17:33.735Z,11.54
2018-01-02T10:32:36.204Z,12.53
2018-01-02T10:47:35.121Z,12.58
2018-01-02T11:02:34.553Z,12.01
2018-01-02T11:17:33.722Z,9.16
2018-01-02T11:32:35.710Z,9.00
2018-01-02T11:47:34.762Z,8.98
2018-01-02T12:02:34.787Z,8.77
2018-01-02T12:17:34.642Z,8.80
2018-01-02T12:32:34.582Z,8.35
2018-01-02T12:47:36.559Z,8.63
2018-01-02T13:02:34.972Z,8.79
2018-01-02T13:17:35.367Z,8.70
2018-01-02T13:32:35.294Z,8.51
2018-01-02T13:47:33.702Z,8.90
2018-01-02T14:02:35.720Z,8.98
2018-01-02T14:17:34.111Z,9.15
2018-01-02T14:32:34.508Z,8.96
2018-01-02T14:47:33.711Z,8.89
2018-01-02T15:02:36.350Z,8.92
2018-01-02T15:17:33.853Z,8.86
2018-01-02T15:32:33.726Z,8.56
2018-01-02T15:47:34.704Z,8.59
2018-01-02T16:02:34.649Z,8.43
2018-01-02T16:17:36.614Z,8.40
2018-01-02T16:32:34.967Z,8.37
2018-01-02T16:47:36.144Z,8.22
2018-01-02T17:02:35.380Z,7.81
2018-01-02T17:17:34.575Z,7.57
2018-01-02T17:32:36.723Z,7.68
2018-01-02T17:47:37.122Z,7.77
2018-01-02T18:02:35.053Z,7.76
2018-01-02T18:17:34.571Z,7.69
2018-01-02T18:32:34.276Z,7.53
2018-01-02T18:47:33.818Z,7.54
2018-01-02T19:02:33.814Z,7.59
2018-01-02T19:17:33.781Z,7.71
2018-01-02T19:32:33.964Z,7.81
2018-01-02T19:47:34.687Z,7.82
2018-01-02T20:02:35.033Z,7.69
2018-01-02T20:17:35.264Z,7.52
2018-01-02T20:32:33.447Z,7.26
2018-01-02T21:32:36.879Z,6.36
2018-01-02T22:17:34.965Z,6.40
2018-01-02T23:47:36.653Z,6.29
